Airfield :
LOGIN :

Register | Disclaimer

   EN    FR    IT 

 










Legend :    VFR   Marginal VFR   IFR   Intensive IFR   Very Intensive IFR
Visi :
Ceiling :
>= 8 km
>= 3000ft
5 to 8 km
1000 to 3000 ft
1500m to 5 km
500 to 1000 ft
800 to 1500m
200 to 500 ft
< 800m
< 200 ft
Symbols :   Thunderstorms  Fog  Heavy snow  Heavy precipitations  Wind > 20 kt
SIGMETs :     Misc.  Thunderstorms  Icing  Turbulence  Mountain Waves  Volcanic Ashes






- Airport Elevation : 3463 ft
- IATA code : ASR


LTAU - Erkilet AB

CURRENT METAR :
  • 011945Z 29012KT 9999 -TSRA FEW030CB BKN035 18/12 Q1013 RETS BECMG TL2045 VRB02KT NSW RMK RWY07 26014KT

EXPIRED METARs :
  • 011939Z 36005KT 270V040 9999 TS FEW030CB BKN040 17/11 Q1013 TEMPO FM2000 27015G25KT -TSRA RMK RWY07 26012KT
  • 011850Z 03006KT 9999 SCT040 BKN180 17/11 Q1012 NOSIG RMK RWY07 02007KT
  • 011820Z 03005KT 9999 SCT040 16/11 Q1012 NOSIG RMK RWY07 02006KT
  • 011750Z 04008KT 9999 SCT040 17/10 Q1012 NOSIG RMK RWY07 03009KT
  • 011720Z 03006KT 9999 SCT040 SCT100 18/10 Q1012 NOSIG RMK RWY07 02007KT
  • 011650Z 02008KT 9999 SCT040 SCT100 18/10 Q1012 NOSIG RMK RWY07 01007KT

TAF AMD TAF LTAU
Valid from the 01 at 19:00 until the 02 at 18:00 UTC


011918Z 0119/0218 VRB02KT 9999 BKN035
TEMPO 0120/0124 27015G25KT -TSRA FEW027CB BKN035
BECMG 0206/0209 27012KT SCT040
BECMG 0215/0217 VRB02KT



MET'MAP, your aeronautical weather chart ! - Copyright ORBIFLY December 2007 - Disclaimer

ORBIFLY MET'MAP TEAM :

Programming & Development : Alexandra Zaïnal
Concept & original design : Baudouin d'Aumeries
Assistance for programming : Marc-Olivier Méhu
Technical & hardware support : Manuel Goepfert

Contact : metmap@orbifly.com




SOURCES & CREDITS :

   NOAA